createdAt,value
2018-10-09T00:02:24.084Z,58.70
2018-10-09T00:04:53.226Z,58.80
2018-10-09T00:07:22.520Z,58.80
2018-10-09T00:09:51.676Z,58.80
2018-10-09T00:12:20.868Z,58.70
2018-10-09T00:14:50.070Z,58.70
2018-10-09T00:17:19.260Z,58.50
2018-10-09T00:19:48.412Z,58.40
2018-10-09T00:22:17.578Z,58.30
2018-10-09T00:24:46.722Z,58.20
2018-10-09T00:27:15.923Z,58.30
2018-10-09T00:29:45.096Z,59.10
2018-10-09T00:32:14.306Z,58.40
2018-10-09T00:34:43.441Z,58.50
2018-10-09T00:37:12.640Z,58.60
2018-10-09T00:39:41.828Z,58.60
2018-10-09T00:42:11.039Z,58.50
2018-10-09T00:44:40.221Z,58.40
2018-10-09T00:47:09.413Z,58.20
2018-10-09T00:49:38.553Z,58.90
2018-10-09T00:52:08.066Z,58.10
2018-10-09T00:54:37.240Z,58.20
2018-10-09T00:57:06.516Z,58.30
2018-10-09T00:59:35.652Z,58.40
2018-10-09T01:02:04.862Z,58.50
2018-10-09T01:04:34.023Z,58.50
2018-10-09T01:07:03.320Z,58.60
2018-10-09T01:09:32.460Z,58.90
2018-10-09T01:12:01.735Z,58.70
2018-10-09T01:14:30.930Z,58.80
2018-10-09T01:17:00.129Z,58.90
2018-10-09T01:19:29.327Z,59.60
2018-10-09T01:21:58.631Z,59.10
2018-10-09T01:24:27.796Z,59.10
2018-10-09T01:26:56.975Z,59.20
2018-10-09T01:29:26.120Z,59.30
2018-10-09T01:31:55.322Z,59.40
2018-10-09T01:34:24.501Z,59.60
2018-10-09T01:36:53.679Z,59.80
2018-10-09T01:39:22.817Z,60.00
2018-10-09T01:41:51.982Z,60.10
2018-10-09T01:44:21.147Z,60.10
2018-10-09T01:46:50.382Z,60.20
2018-10-09T01:49:19.540Z,60.30
2018-10-09T01:51:48.727Z,60.40
2018-10-09T01:54:17.938Z,60.30
2018-10-09T01:56:47.111Z,60.30
2018-10-09T01:59:16.264Z,60.10
2018-10-09T02:01:45.455Z,60.10
2018-10-09T02:04:14.592Z,59.90
2018-10-09T02:06:43.783Z,59.80
2018-10-09T02:09:12.926Z,59.50
2018-10-09T02:11:42.169Z,59.20
2018-10-09T02:14:11.432Z,58.90
2018-10-09T02:16:40.681Z,58.80
2018-10-09T02:19:09.945Z,58.80
2018-10-09T02:21:39.103Z,58.70
2018-10-09T02:24:08.298Z,58.80
2018-10-09T02:26:37.443Z,58.90
2018-10-09T02:29:06.877Z,59.00
2018-10-09T02:31:36.025Z,59.10
2018-10-09T02:34:05.205Z,59.30
2018-10-09T02:36:34.339Z,59.30
2018-10-09T02:39:04.003Z,59.40
2018-10-09T02:41:33.164Z,59.30
2018-10-09T02:44:02.361Z,59.80
2018-10-09T02:46:31.698Z,59.00
2018-10-09T02:49:00.903Z,58.80
2018-10-09T02:51:30.087Z,58.80
2018-10-09T02:53:59.268Z,58.80
2018-10-09T02:56:28.736Z,58.90
2018-10-09T02:58:57.909Z,58.90
2018-10-09T03:01:27.078Z,59.00
2018-10-09T03:03:56.366Z,59.00
2018-10-09T03:06:25.987Z,59.00
2018-10-09T03:08:55.184Z,59.00
2018-10-09T03:11:24.313Z,59.10
2018-10-09T03:13:53.518Z,59.10
2018-10-09T03:16:22.686Z,59.20
2018-10-09T03:18:51.860Z,59.20
2018-10-09T03:21:21.007Z,59.20
2018-10-09T03:23:50.205Z,59.40
2018-10-09T03:26:19.414Z,59.40
2018-10-09T03:28:48.599Z,59.40
2018-10-09T03:31:17.791Z,59.60
2018-10-09T03:33:47.231Z,59.70
2018-10-09T03:36:16.372Z,59.90
2018-10-09T03:38:45.657Z,60.00
2018-10-09T03:41:14.797Z,60.20
2018-10-09T03:43:44.018Z,60.20
2018-10-09T03:46:13.172Z,60.30
2018-10-09T03:48:42.367Z,60.50
2018-10-09T03:51:11.585Z,60.70
2018-10-09T03:53:40.761Z,61.00
2018-10-09T03:56:09.914Z,61.30
2018-10-09T03:58:39.083Z,61.30
2018-10-09T04:01:08.242Z,61.70
2018-10-09T04:03:37.420Z,62.10
2018-10-09T04:06:06.566Z,62.10
2018-10-09T04:08:35.783Z,62.40
2018-10-09T04:11:06.510Z,62.60
2018-10-09T04:13:35.699Z,62.70
2018-10-09T04:16:05.609Z,62.90
2018-10-09T04:18:34.833Z,63.00
2018-10-09T04:21:03.985Z,63.00
2018-10-09T04:23:33.175Z,63.00
2018-10-09T04:26:02.373Z,63.00
2018-10-09T04:28:31.563Z,63.00
2018-10-09T04:31:00.724Z,62.90
2018-10-09T04:33:29.901Z,62.90
2018-10-09T04:35:59.052Z,62.90
2018-10-09T04:38:28.243Z,62.70
2018-10-09T04:40:57.407Z,62.60
2018-10-09T04:43:26.572Z,62.60
2018-10-09T04:45:55.757Z,62.60
2018-10-09T04:48:24.937Z,62.70
2018-10-09T04:50:54.082Z,62.80
2018-10-09T04:53:23.263Z,62.90
2018-10-09T04:55:52.403Z,63.00
2018-10-09T04:58:21.548Z,63.00
2018-10-09T05:00:50.821Z,63.90
2018-10-09T05:03:19.923Z,63.00
2018-10-09T05:05:49.095Z,63.00
2018-10-09T05:08:18.256Z,63.00
2018-10-09T05:10:47.492Z,63.10
2018-10-09T05:13:16.657Z,62.90
2018-10-09T05:15:45.883Z,63.60
2018-10-09T05:18:15.098Z,62.90
2018-10-09T05:20:44.298Z,62.90
2018-10-09T05:23:13.456Z,62.80
2018-10-09T05:25:42.653Z,62.80
2018-10-09T05:28:11.794Z,62.80
2018-10-09T05:30:41.010Z,62.80
2018-10-09T05:33:10.175Z,62.80
2018-10-09T05:35:39.388Z,62.80
2018-10-09T05:38:08.568Z,62.80
2018-10-09T05:40:37.757Z,62.80
2018-10-09T05:43:07.290Z,62.70
2018-10-09T05:45:40.215Z,62.60
2018-10-09T05:48:10.483Z,62.70
2018-10-09T05:50:39.800Z,62.80
2018-10-09T05:53:08.953Z,62.90
2018-10-09T05:55:38.315Z,63.10
2018-10-09T05:58:07.885Z,63.10
2018-10-09T06:00:37.170Z,63.20
2018-10-09T06:03:06.632Z,63.40
2018-10-09T06:05:36.108Z,63.50
2018-10-09T06:08:05.262Z,63.60
2018-10-09T06:10:34.461Z,63.80
2018-10-09T06:13:03.639Z,63.90
2018-10-09T06:15:32.895Z,64.00
2018-10-09T06:18:02.085Z,64.00
2018-10-09T06:20:31.273Z,64.10
2018-10-09T06:23:00.430Z,64.10
2018-10-09T06:25:29.651Z,64.20
2018-10-09T06:27:58.869Z,64.20
2018-10-09T06:30:28.094Z,64.30
2018-10-09T06:32:57.257Z,64.50
2018-10-09T06:35:26.442Z,64.40
2018-10-09T06:37:55.605Z,64.50
2018-10-09T06:40:24.835Z,64.50
2018-10-09T06:42:54.173Z,64.50
2018-10-09T06:45:23.325Z,64.40
2018-10-09T06:47:52.488Z,64.30
2018-10-09T06:50:21.702Z,64.30
2018-10-09T06:52:51.274Z,64.20
2018-10-09T06:55:20.449Z,65.20
2018-10-09T06:57:49.617Z,64.20
2018-10-09T07:00:18.871Z,64.30
2018-10-09T07:02:47.985Z,64.30
2018-10-09T07:05:17.195Z,64.40
2018-10-09T07:07:46.354Z,64.40
2018-10-09T07:10:15.499Z,64.50
2018-10-09T07:12:44.672Z,64.70
2018-10-09T07:15:13.900Z,64.90
2018-10-09T07:17:43.058Z,65.00
2018-10-09T07:20:12.238Z,65.00
2018-10-09T07:22:41.402Z,65.00
2018-10-09T07:25:10.603Z,65.10
2018-10-09T07:27:39.879Z,65.20
2018-10-09T07:30:10.510Z,65.40
2018-10-09T07:32:39.721Z,65.40
2018-10-09T07:35:09.903Z,65.60
2018-10-09T07:37:39.120Z,66.50
2018-10-09T07:40:08.414Z,65.60
2018-10-09T07:42:37.569Z,65.60
2018-10-09T07:45:06.809Z,65.60
2018-10-09T07:47:35.977Z,65.70
2018-10-09T07:50:05.891Z,65.60
2018-10-09T07:52:35.130Z,65.70
2018-10-09T07:55:04.457Z,65.70
2018-10-09T07:57:33.720Z,65.70
2018-10-09T08:00:03.650Z,66.60
2018-10-09T08:02:32.851Z,65.80
2018-10-09T08:05:02.114Z,66.00
2018-10-09T08:07:31.355Z,66.20
2018-10-09T08:10:00.517Z,66.40
2018-10-09T08:12:29.790Z,66.60
2018-10-09T08:14:59.118Z,66.70
2018-10-09T08:17:28.326Z,66.90
2018-10-09T08:19:57.495Z,67.10
2018-10-09T08:22:26.751Z,67.20
2018-10-09T08:24:55.889Z,67.00
2018-10-09T08:27:25.101Z,66.90
2018-10-09T08:29:54.275Z,67.00
2018-10-09T08:32:23.547Z,67.30
2018-10-09T08:34:52.723Z,67.50
2018-10-09T08:37:21.964Z,67.40
2018-10-09T08:39:51.204Z,67.30
2018-10-09T08:42:20.405Z,67.20
2018-10-09T08:44:49.570Z,67.60
2018-10-09T08:47:18.808Z,67.50
2018-10-09T08:49:48.016Z,67.40
2018-10-09T08:52:17.223Z,67.10
2018-10-09T08:54:46.353Z,67.20
2018-10-09T08:57:15.585Z,67.00
2018-10-09T08:59:44.766Z,66.80
2018-10-09T09:02:13.988Z,66.80
2018-10-09T09:04:43.148Z,66.80
2018-10-09T09:07:12.236Z,66.70
2018-10-09T09:09:41.460Z,66.60
2018-10-09T09:12:10.675Z,66.70
2018-10-09T09:14:39.884Z,67.60
2018-10-09T09:17:09.279Z,66.60
2018-10-09T09:19:38.551Z,66.50
2018-10-09T09:22:07.765Z,66.50
2018-10-09T09:24:37.293Z,66.70
2018-10-09T09:27:06.596Z,66.70
2018-10-09T09:29:35.789Z,66.50
2018-10-09T09:32:05.056Z,66.50
2018-10-09T09:34:34.272Z,66.50
2018-10-09T09:37:03.478Z,66.50
2018-10-09T09:39:32.637Z,66.50
2018-10-09T09:42:01.839Z,66.50
2018-10-09T09:44:31.107Z,66.30
2018-10-09T09:47:00.325Z,66.40
2018-10-09T09:49:29.492Z,67.40
2018-10-09T09:51:58.599Z,66.70
2018-10-09T09:54:27.819Z,66.70
2018-10-09T09:56:57.071Z,66.50
2018-10-09T09:59:26.382Z,66.60
2018-10-09T10:01:55.432Z,66.40
2018-10-09T10:04:24.616Z,66.40
2018-10-09T10:06:53.821Z,66.50
2018-10-09T10:09:23.033Z,66.30
2018-10-09T10:11:52.259Z,66.30
2018-10-09T10:14:21.652Z,66.40
2018-10-09T10:16:50.908Z,66.00
2018-10-09T10:19:20.229Z,66.00
2018-10-09T10:21:49.451Z,65.80
2018-10-09T10:24:18.703Z,65.70
2018-10-09T10:26:47.901Z,65.60
2018-10-09T10:29:17.122Z,65.60
2018-10-09T10:31:46.270Z,65.50
2018-10-09T10:34:15.494Z,65.40
2018-10-09T10:36:44.703Z,65.40
2018-10-09T10:39:14.036Z,65.10
2018-10-09T10:41:43.272Z,64.90
2018-10-09T10:44:12.481Z,64.50
2018-10-09T10:46:42.451Z,64.40
2018-10-09T10:49:14.012Z,64.40
2018-10-09T10:51:43.189Z,64.10
2018-10-09T10:54:12.444Z,63.90
2018-10-09T10:56:41.625Z,64.00
2018-10-09T10:59:10.838Z,63.60
2018-10-09T11:01:40.073Z,63.30
2018-10-09T11:04:09.328Z,63.20
2018-10-09T11:06:38.511Z,63.10
2018-10-09T11:09:09.900Z,63.10
2018-10-09T11:11:39.074Z,63.10
2018-10-09T11:14:08.379Z,63.00
2018-10-09T11:16:37.578Z,62.90
2018-10-09T11:19:06.792Z,62.90
2018-10-09T11:21:36.044Z,63.10
2018-10-09T11:24:05.263Z,63.10
2018-10-09T11:26:34.473Z,62.90
2018-10-09T11:29:03.694Z,62.70
2018-10-09T11:31:32.873Z,62.50
2018-10-09T11:34:02.116Z,62.50
2018-10-09T11:36:31.367Z,62.00
2018-10-09T11:39:01.101Z,61.60
2018-10-09T11:41:30.300Z,61.70
2018-10-09T11:43:59.493Z,61.40
2018-10-09T11:46:28.641Z,61.20
2018-10-09T11:48:57.843Z,61.20
2018-10-09T11:51:27.010Z,60.70
2018-10-09T11:53:56.217Z,60.60
2018-10-09T11:56:25.382Z,60.20
2018-10-09T11:58:54.799Z,59.90
2018-10-09T12:01:24.044Z,60.00
2018-10-09T12:03:53.217Z,59.80
2018-10-09T12:06:22.380Z,59.50
2018-10-09T12:08:51.577Z,59.30
2018-10-09T12:11:21.500Z,59.10
2018-10-09T12:13:50.756Z,59.00
2018-10-09T12:16:19.959Z,59.50
2018-10-09T12:18:49.158Z,58.70
2018-10-09T12:21:18.322Z,58.50
2018-10-09T12:23:47.674Z,58.20
2018-10-09T12:26:17.055Z,58.10
2018-10-09T12:28:46.256Z,57.80
2018-10-09T12:31:15.512Z,57.70
2018-10-09T12:33:44.702Z,57.60
2018-10-09T12:36:13.915Z,57.40
2018-10-09T12:38:43.134Z,57.10
2018-10-09T12:41:12.291Z,57.00
2018-10-09T12:43:41.546Z,56.70
2018-10-09T12:46:10.709Z,56.20
2018-10-09T12:48:39.898Z,56.10
2018-10-09T12:51:09.063Z,55.90
2018-10-09T12:53:38.275Z,55.70
2018-10-09T12:56:07.444Z,55.50
2018-10-09T12:58:36.724Z,55.20
2018-10-09T13:01:05.870Z,55.20
2018-10-09T13:03:35.101Z,55.00
2018-10-09T13:06:04.300Z,54.80
2018-10-09T13:08:33.504Z,54.70
2018-10-09T13:11:02.701Z,54.50
2018-10-09T13:13:31.882Z,54.30
2018-10-09T13:16:01.119Z,54.10
2018-10-09T13:18:30.484Z,54.00
2018-10-09T13:20:59.739Z,53.90
2018-10-09T13:23:28.950Z,53.80
2018-10-09T13:25:58.253Z,53.60
2018-10-09T13:28:27.474Z,53.40
2018-10-09T13:30:56.726Z,53.00
2018-10-09T13:33:25.892Z,53.10
2018-10-09T13:35:55.112Z,53.00
2018-10-09T13:38:24.388Z,52.90
2018-10-09T13:40:53.651Z,53.40
2018-10-09T13:43:22.833Z,52.70
2018-10-09T13:45:52.138Z,53.10
2018-10-09T13:48:21.287Z,52.30
2018-10-09T13:50:50.600Z,52.10
2018-10-09T13:53:19.725Z,52.00
2018-10-09T13:55:48.933Z,51.90
2018-10-09T13:58:18.099Z,51.70
2018-10-09T14:00:47.321Z,51.70
2018-10-09T14:03:16.584Z,51.60
2018-10-09T14:05:45.780Z,51.30
2018-10-09T14:08:14.937Z,51.20
2018-10-09T14:10:44.105Z,51.10
2018-10-09T14:13:13.272Z,50.90
2018-10-09T14:15:42.504Z,50.90
2018-10-09T14:18:11.679Z,50.80
2018-10-09T14:20:41.170Z,50.80
2018-10-09T14:23:10.504Z,50.40
2018-10-09T14:25:39.670Z,50.70
2018-10-09T14:28:09.179Z,50.40
2018-10-09T14:30:38.384Z,50.40
2018-10-09T14:33:07.578Z,50.50
2018-10-09T14:35:36.779Z,50.00
2018-10-09T14:38:05.962Z,50.40
2018-10-09T14:40:35.227Z,49.50
2018-10-09T14:43:04.391Z,49.30
2018-10-09T14:45:33.599Z,49.10
2018-10-09T14:48:02.775Z,48.90
2018-10-09T14:50:31.973Z,48.60
2018-10-09T14:53:01.147Z,48.10
2018-10-09T14:55:30.377Z,47.90
2018-10-09T14:57:59.554Z,47.70
2018-10-09T15:00:28.746Z,47.30
2018-10-09T15:02:57.908Z,47.20
2018-10-09T15:05:27.103Z,47.30
2018-10-09T15:07:56.363Z,46.80
2018-10-09T15:10:25.613Z,46.70
2018-10-09T15:12:54.834Z,46.60
2018-10-09T15:15:24.079Z,46.40
2018-10-09T15:17:53.165Z,46.60
2018-10-09T15:20:22.364Z,46.30
2018-10-09T15:22:51.571Z,46.20
2018-10-09T15:25:20.786Z,45.90
2018-10-09T15:27:49.943Z,45.70
2018-10-09T15:30:19.192Z,45.80
2018-10-09T15:32:48.359Z,45.60
2018-10-09T15:35:18.516Z,45.50
2018-10-09T15:37:47.680Z,45.50
2018-10-09T15:40:17.037Z,45.80
2018-10-09T15:42:46.202Z,46.10
2018-10-09T15:45:15.427Z,46.10
2018-10-09T15:47:44.620Z,46.30
2018-10-09T15:50:13.776Z,46.40
2018-10-09T15:52:43.058Z,46.50
2018-10-09T15:55:12.239Z,46.50
2018-10-09T15:57:41.452Z,46.70
2018-10-09T16:00:10.626Z,46.80
2018-10-09T16:02:39.969Z,47.00
2018-10-09T16:05:09.241Z,47.00
2018-10-09T16:07:38.416Z,47.20
2018-10-09T16:10:07.634Z,47.30
2018-10-09T16:12:36.869Z,47.50
2018-10-09T16:15:06.810Z,47.50
2018-10-09T16:17:36.032Z,47.70
2018-10-09T16:20:06.371Z,47.60
2018-10-09T16:22:35.778Z,47.80
2018-10-09T16:25:05.248Z,47.80
2018-10-09T16:27:34.470Z,48.00
2018-10-09T16:30:04.862Z,48.10
2018-10-09T16:32:34.161Z,48.10
2018-10-09T16:35:04.104Z,48.10
2018-10-09T16:37:33.326Z,48.30
2018-10-09T16:40:02.549Z,48.40
2018-10-09T16:42:31.780Z,48.50
2018-10-09T16:45:00.971Z,48.60
2018-10-09T16:47:30.427Z,48.70
2018-10-09T16:50:00.259Z,48.80
2018-10-09T16:52:29.438Z,48.40
2018-10-09T16:54:58.601Z,48.90
2018-10-09T16:57:27.805Z,48.90
2018-10-09T16:59:56.970Z,48.90
2018-10-09T17:02:26.186Z,49.10
2018-10-09T17:04:55.355Z,49.10
2018-10-09T17:07:24.648Z,49.20
2018-10-09T17:09:53.879Z,49.20
2018-10-09T17:12:23.093Z,49.40
2018-10-09T17:14:52.257Z,49.60
2018-10-09T17:17:21.457Z,49.40
2018-10-09T17:19:50.683Z,49.60
2018-10-09T17:22:19.857Z,49.60
2018-10-09T17:24:49.081Z,49.70
2018-10-09T17:27:18.281Z,50.10
2018-10-09T17:29:47.490Z,49.80
2018-10-09T17:32:16.811Z,49.90
2018-10-09T17:34:45.980Z,50.00
2018-10-09T17:37:15.190Z,50.10
2018-10-09T17:39:44.449Z,50.10
2018-10-09T17:42:13.652Z,50.20
2018-10-09T17:44:42.868Z,50.30
2018-10-09T17:47:12.072Z,50.40
2018-10-09T17:49:41.526Z,50.50
2018-10-09T17:52:11.530Z,50.60
2018-10-09T17:54:40.696Z,50.70
2018-10-09T17:57:09.880Z,50.80
2018-10-09T17:59:39.047Z,50.90
2018-10-09T18:02:08.435Z,50.90
2018-10-09T18:04:37.600Z,51.00
2018-10-09T18:07:06.833Z,51.10
2018-10-09T18:09:35.997Z,51.20
2018-10-09T18:12:05.218Z,51.30
2018-10-09T18:14:34.436Z,51.30
2018-10-09T18:17:03.701Z,51.40
2018-10-09T18:19:32.871Z,51.50
2018-10-09T18:22:02.065Z,51.60
2018-10-09T18:24:31.227Z,51.70
2018-10-09T18:27:00.466Z,51.80
2018-10-09T18:29:29.727Z,51.90
2018-10-09T18:31:58.978Z,52.00
2018-10-09T18:34:28.193Z,52.00
2018-10-09T18:36:57.370Z,52.10
2018-10-09T18:39:26.570Z,52.20
2018-10-09T18:41:55.814Z,52.20
2018-10-09T18:44:25.091Z,52.30
2018-10-09T18:46:54.408Z,52.40
2018-10-09T18:49:23.667Z,52.50
2018-10-09T18:51:52.901Z,52.50
2018-10-09T18:54:22.266Z,52.60
2018-10-09T18:56:51.613Z,52.60
2018-10-09T18:59:21.049Z,52.70
2018-10-09T19:01:50.234Z,52.70
2018-10-09T19:04:19.445Z,52.70
2018-10-09T19:06:48.611Z,52.80
2018-10-09T19:09:17.816Z,52.90
2018-10-09T19:11:47.019Z,52.90
2018-10-09T19:14:16.232Z,52.90
2018-10-09T19:16:45.396Z,53.00
2018-10-09T19:19:14.644Z,53.10
2018-10-09T19:21:43.828Z,53.10
2018-10-09T19:24:13.480Z,53.20
2018-10-09T19:26:42.915Z,53.20
2018-10-09T19:29:12.117Z,53.20
2018-10-09T19:31:41.314Z,53.40
2018-10-09T19:34:10.503Z,53.70
2018-10-09T19:36:39.690Z,53.40
2018-10-09T19:39:11.194Z,53.40
2018-10-09T19:41:40.405Z,53.50
2018-10-09T19:44:09.634Z,53.50
2018-10-09T19:46:39.353Z,53.50
2018-10-09T19:49:08.565Z,53.50
2018-10-09T19:51:37.798Z,53.60
2018-10-09T19:54:07.077Z,53.70
2018-10-09T19:56:36.257Z,53.70
2018-10-09T19:59:05.535Z,53.80
2018-10-09T20:01:34.866Z,53.80
2018-10-09T20:04:04.068Z,53.90
2018-10-09T20:06:33.487Z,54.60
2018-10-09T20:09:02.828Z,54.00
2018-10-09T20:11:33.317Z,54.10
2018-10-09T20:14:02.518Z,54.10
2018-10-09T20:16:31.703Z,54.20
2018-10-09T20:19:00.917Z,54.30
2018-10-09T20:21:30.103Z,54.40
2018-10-09T20:23:59.289Z,54.40
2018-10-09T20:26:28.452Z,54.50
2018-10-09T20:28:57.643Z,54.50
2018-10-09T20:31:26.812Z,54.60
2018-10-09T20:33:55.997Z,54.70
2018-10-09T20:36:25.209Z,54.80
2018-10-09T20:38:54.487Z,54.80
2018-10-09T20:41:23.655Z,54.90
2018-10-09T20:43:53.037Z,55.00
2018-10-09T20:46:22.336Z,55.00
2018-10-09T20:48:51.542Z,55.00
2018-10-09T20:51:20.802Z,55.10
2018-10-09T20:53:50.007Z,55.10
2018-10-09T20:56:19.163Z,55.20
2018-10-09T20:58:48.356Z,55.30
2018-10-09T21:01:17.497Z,55.30
2018-10-09T21:03:46.712Z,55.40
2018-10-09T21:06:16.013Z,56.00
2018-10-09T21:08:45.149Z,55.50
2018-10-09T21:11:14.301Z,55.40
2018-10-09T21:13:43.658Z,55.50
2018-10-09T21:16:12.830Z,55.50
2018-10-09T21:18:42.075Z,55.50
2018-10-09T21:21:11.261Z,55.60
2018-10-09T21:23:40.459Z,55.70
2018-10-09T21:26:09.617Z,55.80
2018-10-09T21:28:38.890Z,55.70
2018-10-09T21:31:08.083Z,55.80
2018-10-09T21:33:37.290Z,55.80
2018-10-09T21:36:06.552Z,56.00
2018-10-09T21:38:36.123Z,56.10
2018-10-09T21:41:05.351Z,56.10
2018-10-09T21:43:34.507Z,56.20
2018-10-09T21:46:03.795Z,56.20
2018-10-09T21:48:32.963Z,56.30
2018-10-09T21:51:02.239Z,56.30
2018-10-09T21:53:31.406Z,56.40
2018-10-09T21:56:00.631Z,56.50
2018-10-09T21:58:29.802Z,56.40
2018-10-09T22:01:13.304Z,56.60
2018-10-09T22:03:43.452Z,56.70
2018-10-09T22:06:12.660Z,56.60
2018-10-09T22:08:41.837Z,56.60
2018-10-09T22:11:11.054Z,56.70
2018-10-09T22:13:40.206Z,56.70
2018-10-09T22:16:09.436Z,56.80
2018-10-09T22:18:38.615Z,56.90
2018-10-09T22:21:07.856Z,56.80
2018-10-09T22:23:37.025Z,56.90
2018-10-09T22:26:06.258Z,56.90
2018-10-09T22:28:35.499Z,56.90
2018-10-09T22:31:04.699Z,57.00
2018-10-09T22:33:33.932Z,57.00
2018-10-09T22:36:03.129Z,57.00
2018-10-09T22:38:32.333Z,57.10
2018-10-09T22:41:01.531Z,57.10
2018-10-09T22:43:30.711Z,57.10
2018-10-09T22:45:59.944Z,57.20
2018-10-09T22:48:29.125Z,57.10
2018-10-09T22:50:58.322Z,57.20
2018-10-09T22:53:27.506Z,57.20
2018-10-09T22:55:56.722Z,57.20
2018-10-09T22:58:25.952Z,57.20
2018-10-09T23:00:55.148Z,57.20
2018-10-09T23:03:24.321Z,57.20
2018-10-09T23:05:53.561Z,57.20
2018-10-09T23:08:22.723Z,57.30
2018-10-09T23:10:51.951Z,57.30
2018-10-09T23:13:21.128Z,57.30
2018-10-09T23:15:50.312Z,57.40
2018-10-09T23:18:19.471Z,57.50
2018-10-09T23:20:48.723Z,57.50
2018-10-09T23:23:17.925Z,57.50
2018-10-09T23:25:47.170Z,57.60
2018-10-09T23:28:16.346Z,57.60
2018-10-09T23:30:45.560Z,57.70
2018-10-09T23:33:14.717Z,58.40
2018-10-09T23:35:43.915Z,57.80
2018-10-09T23:38:13.109Z,57.90
2018-10-09T23:40:42.308Z,57.90
2018-10-09T23:43:11.530Z,58.10
2018-10-09T23:45:40.753Z,58.10
2018-10-09T23:48:10.626Z,58.20
2018-10-09T23:50:41.295Z,58.20
2018-10-09T23:53:10.460Z,58.30
2018-10-09T23:55:39.653Z,58.40
2018-10-09T23:58:08.819Z,58.50
